Kezdőlap
METAR-TAF:

METAR-TAF

Repülőterek :

Stanton, Minnesota, Amerikai Egyesült Államok

földrajzi szélesség: 44-28-32N, földrajzi hosszúság: 093-00-59W, magasság: 280 m

Jelenlegi meteorológiai megfigyelések

A jelentés 23 perccel ezelõtt készült, 13:15 UTC
Nyugati szél 4 kt
Hőmérséklet 22°C
Páratartalom 88%
Légköri nyomás 1019 hPa
Látótávolság: 16.1 km
Szakadozott felhőzet 700 lábon
Szakadozott felhőzet 1400 lábon

METAR: KSYN 281315Z AUTO 26004KT 10SM -VCTSRA BKN007 BKN014 22/20 A3010 RMK AO2 LTG DSNT SW THRU NW T02170197

Idő: 08:38 (13:38 UTC)


TAF: hiányzik

Meteorológiai megfigyelések és előrejelzések több, mint 4000 repülőtéren (METAR és TAF jelentéseket).

A térképen piros és sárga pontok jelzik az elérhető meteorológiai állomásokat.

Mozgassa az egeret a pont fölött, hogy megjelenjen az állomás neve.

Azután kattintson az időjárási megfigyelések és előrejelzések megtekintéséhez.

A térkép megváltoztatása: kattintson a fekete keresztel jelölt zöld gombra ráközelítéshez, a vonallal jelölt zöld gombra távolításhoz, vagy a zöld nyilakra a szomszédos térképek eléréséhez.


METAR-TAF: